Time;durP1;ratioP1;P1;durP2;ratioP2;P2;SDS_P1;SDS_P2;PMS_P1;PMS_P2;Temp;Humidity;BMP_temperature;BMP_pressure;BME280_temperature;BME280_humidity;BME280_pressure;Samples;Min_cycle;Max_cycle;Signal;HPM_P1;HPM_P2
2021/04/13 00:02:15;;;;;;;9.63;5.20;;;5.90;76.90;;;;;;4991954;28;20054;-71
2021/04/13 00:04:42;;;;;;;7.80;4.50;;;5.60;78.90;;;;;;4990082;28;20101;-71
2021/04/13 00:07:10;;;;;;;7.47;4.93;;;5.50;79.40;;;;;;5005763;28;20053;-71
2021/04/13 00:09:36;;;;;;;8.43;5.13;;;5.60;80.10;;;;;;5005049;28;20137;-72
2021/04/13 00:12:14;;;;;;;7.72;5.00;;;5.30;80.40;;;;;;4989826;28;20050;-72
2021/04/13 00:14:45;;;;;;;7.53;4.63;;;5.20;81.70;;;;;;4990699;28;20065;-71
2021/04/13 00:17:20;;;;;;;8.15;5.18;;;5.30;82.20;;;;;;4991357;28;20076;-71
2021/04/13 00:20:14;;;;;;;8.50;4.88;;;5.30;82.10;;;;;;4992557;28;20046;-71
2021/04/13 00:22:42;;;;;;;9.30;4.80;;;5.60;81.70;;;;;;5007577;28;20112;-71
2021/04/13 00:25:16;;;;;;;8.32;5.20;;;5.20;81.00;;;;;;4992275;28;20085;-72
2021/04/13 00:27:46;;;;;;;10.85;5.22;;;5.00;82.00;;;;;;5006106;28;20168;-72
2021/04/13 00:30:17;;;;;;;7.95;5.03;;;5.20;82.80;;;;;;4991854;28;20050;-72
2021/04/13 00:32:59;;;;;;;9.60;5.00;;;5.10;82.40;;;;;;4991193;28;20128;-71
2021/04/13 00:38:18;;;;;;;10.18;5.45;;;5.00;82.30;;;;;;4994286;28;20070;-71
2021/04/13 00:40:48;;;;;;;9.25;5.10;;;4.90;82.30;;;;;;4995594;28;20085;-71
2021/04/13 00:43:17;;;;;;;11.52;6.25;;;4.80;83.60;;;;;;4995738;28;20081;-71
2021/04/13 00:45:48;;;;;;;11.60;6.38;;;4.80;83.80;;;;;;4995630;28;20097;-71
2021/04/13 00:48:25;;;;;;;10.10;5.30;;;4.70;85.00;;;;;;5008758;28;20049;-71
2021/04/13 00:50:59;;;;;;;9.25;5.95;;;4.70;85.60;;;;;;5020426;28;20077;-72
2021/04/13 00:53:29;;;;;;;10.57;6.07;;;4.90;85.30;;;;;;5024862;28;20050;-71
2021/04/13 00:56:03;;;;;;;8.57;5.95;;;5.00;84.80;;;;;;5013217;28;20096;-71
2021/04/13 00:58:33;;;;;;;15.43;7.43;;;4.90;86.10;;;;;;5013262;28;20081;-71
2021/04/13 01:01:06;;;;;;;11.55;6.50;;;4.80;85.70;;;;;;5012344;28;20551;-71
2021/04/13 01:03:33;;;;;;;12.65;6.43;;;4.80;86.70;;;;;;5013833;28;20046;-71
2021/04/13 01:06:00;;;;;;;12.30;6.93;;;5.10;87.30;;;;;;5013300;28;20449;-71
2021/04/13 01:08:36;;;;;;;14.38;6.45;;;4.80;87.20;;;;;;5011965;28;20049;-72
2021/04/13 01:11:25;;;;;;;9.13;5.97;;;4.80;88.20;;;;;;5008713;28;20551;-71
2021/04/13 01:13:54;;;;;;;11.45;6.45;;;4.90;87.10;;;;;;5005972;28;20129;-71
2021/04/13 01:16:26;;;;;;;11.38;6.47;;;4.90;86.70;;;;;;5010631;28;20042;-72
2021/04/13 01:18:56;;;;;;;11.05;6.43;;;4.70;87.00;;;;;;5012902;28;20099;-71
2021/04/13 01:21:36;;;;;;;14.35;6.25;;;4.60;88.20;;;;;;5012438;28;20069;-71
2021/04/13 01:24:11;;;;;;;9.55;5.78;;;4.90;88.60;;;;;;5011931;28;20103;-71
2021/04/13 01:26:43;;;;;;;9.80;5.65;;;4.60;89.00;;;;;;5012837;28;20112;-72
2021/04/13 01:29:15;;;;;;;9.98;5.78;;;4.90;89.00;;;;;;5012384;28;20056;-71
2021/04/13 01:31:49;;;;;;;11.50;5.53;;;4.80;88.90;;;;;;5014484;28;20088;-71
2021/04/13 01:34:20;;;;;;;8.82;5.60;;;4.60;88.70;;;;;;5012355;28;20108;-71
2021/04/13 01:37:00;;;;;;;;;;;4.50;87.90;;;;;;5013143;28;20406;-71
2021/04/13 01:39:31;;;;;;;;;;;4.40;88.90;;;;;;5012671;28;19957;-71
2021/04/13 01:42:00;;;;;;;11.75;5.07;;;4.40;87.80;;;;;;5012268;28;19921;-72
2021/04/13 01:44:40;;;;;;;11.38;5.85;;;4.80;88.10;;;;;;5009652;28;20486;-71
2021/04/13 01:47:09;;;;;;;9.48;6.03;;;4.30;87.90;;;;;;5011575;28;20049;-72
2021/04/13 01:49:41;;;;;;;10.60;6.22;;;4.20;88.50;;;;;;5009487;28;20092;-71
2021/04/13 01:52:10;;;;;;;11.60;6.05;;;4.40;89.70;;;;;;5012146;28;20077;-71
2021/04/13 01:54:38;;;;;;;8.70;5.88;;;4.30;89.70;;;;;;5026031;28;20116;-71
2021/04/13 01:57:33;;;;;;;8.88;5.95;;;4.40;89.80;;;;;;5013057;28;20050;-71
2021/04/13 02:00:40;;;;;;;10.88;6.05;;;4.40;90.20;;;;;;4993505;28;20039;-71
2021/04/13 02:03:26;;;;;;;10.82;5.68;;;4.30;90.50;;;;;;5010034;28;20391;-70
2021/04/13 02:05:59;;;;;;;11.35;6.35;;;4.50;90.70;;;;;;5012009;28;20074;-70
2021/04/13 02:08:53;;;;;;;10.82;6.40;;;4.60;90.00;;;;;;5014393;28;20493;-71
2021/04/13 02:11:27;;;;;;;11.73;6.30;;;4.60;90.20;;;;;;5008455;28;20049;-70
2021/04/13 02:14:02;;;;;;;11.55;6.15;;;4.60;90.00;;;;;;5009651;28;20141;-71
2021/04/13 02:16:51;;;;;;;10.73;6.35;;;4.60;90.00;;;;;;5023962;28;20538;-71
2021/04/13 02:19:19;;;;;;;10.90;6.45;;;4.50;90.40;;;;;;5026472;28;20382;-71
2021/04/13 02:21:49;;;;;;;14.95;6.88;;;4.40;90.30;;;;;;5011783;28;20099;-71
2021/04/13 02:24:22;;;;;;;9.00;6.22;;;4.10;91.20;;;;;;5013103;28;20577;-71
2021/04/13 02:26:55;;;;;;;9.95;6.50;;;4.10;91.50;;;;;;5009499;28;20144;-71
2021/04/13 02:29:38;;;;;;;10.02;6.80;;;4.40;91.80;;;;;;5010402;28;20115;-71
2021/04/13 02:32:14;;;;;;;10.82;6.78;;;4.40;91.30;;;;;;5023879;28;20843;-71
2021/04/13 02:34:45;;;;;;;13.18;7.18;;;4.50;91.90;;;;;;5011087;28;20523;-71
2021/04/13 02:37:19;;;;;;;13.00;7.65;;;4.60;92.00;;;;;;5025552;28;20452;-72
2021/04/13 02:39:46;;;;;;;14.07;6.90;;;4.30;92.00;;;;;;5024504;28;20046;-71
2021/04/13 02:42:18;;;;;;;11.18;7.05;;;4.20;92.20;;;;;;5023780;28;20042;-71
2021/04/13 02:44:56;;;;;;;16.67;7.70;;;4.40;92.30;;;;;;5012255;28;20566;-71
2021/04/13 02:47:25;;;;;;;12.35;7.50;;;4.60;92.30;;;;;;5027357;28;20049;-71
2021/04/13 02:49:54;;;;;;;12.68;7.43;;;4.40;92.00;;;;;;4999193;28;20054;-71
2021/04/13 02:52:25;;;;;;;13.93;6.78;;;4.60;92.40;;;;;;5008954;28;20390;-70
2021/04/13 02:54:58;;;;;;;12.48;7.25;;;4.50;91.60;;;;;;5026444;28;20116;-71
2021/04/13 02:57:33;;;;;;;12.05;6.82;;;4.40;91.40;;;;;;5009442;28;20073;-70
2021/04/13 03:00:10;;;;;;;13.85;7.45;;;4.50;91.10;;;;;;5008854;28;20070;-71
2021/04/13 03:02:55;;;;;;;11.85;6.78;;;4.60;90.60;;;;;;5006284;28;20050;-70
2021/04/13 03:05:30;;;;;;;12.77;7.65;;;4.70;90.10;;;;;;5011117;28;20056;-70
2021/04/13 03:08:01;;;;;;;11.63;6.88;;;4.60;89.50;;;;;;5010506;28;20145;-71
2021/04/13 03:10:32;;;;;;;;;;;4.80;89.50;;;;;;5011641;28;20050;-70
2021/04/13 03:13:05;;;;;;;12.68;7.38;;;4.70;89.40;;;;;;5005972;28;19952;-70
2021/04/13 03:15:34;;;;;;;14.93;7.25;;;4.80;90.10;;;;;;5017650;28;20047;-71
2021/04/13 03:18:06;;;;;;;10.23;7.43;;;4.90;89.80;;;;;;5013132;28;20069;-71
2021/04/13 03:20:39;;;;;;;13.68;7.47;;;4.70;89.20;;;;;;5004034;28;20069;-71
2021/04/13 03:23:07;;;;;;;12.95;7.13;;;4.70;90.30;;;;;;5011421;28;20041;-72
2021/04/13 03:25:40;;;;;;;15.23;8.23;;;4.50;90.30;;;;;;5023313;28;20084;-71
2021/04/13 03:28:10;;;;;;;13.30;6.97;;;4.60;90.00;;;;;;5008151;28;20042;-71
2021/04/13 03:30:40;;;;;;;12.77;7.97;;;4.60;89.60;;;;;;5002541;28;20173;-71
2021/04/13 03:33:12;;;;;;;16.17;7.55;;;4.90;90.20;;;;;;5011554;28;20046;-70
2021/04/13 03:35:39;;;;;;;14.23;7.72;;;4.60;90.30;;;;;;5009168;28;20464;-71
2021/04/13 03:38:08;;;;;;;15.10;8.25;;;4.60;90.50;;;;;;5011861;28;20133;-71
2021/04/13 03:40:38;;;;;;;13.15;7.75;;;4.50;90.50;;;;;;5023209;28;20092;-70
2021/04/13 03:43:07;;;;;;;14.40;7.13;;;4.40;89.80;;;;;;5011553;28;20480;-70
2021/04/13 03:45:35;;;;;;;14.32;7.65;;;4.30;90.20;;;;;;5008068;28;20562;-70
2021/04/13 03:48:23;;;;;;;13.85;7.70;;;4.10;90.60;;;;;;5022775;28;20136;-71
2021/04/13 03:51:07;;;;;;;12.55;8.13;;;4.20;90.70;;;;;;5009737;28;20053;-71
2021/04/13 03:53:37;;;;;;;14.73;7.68;;;4.40;91.00;;;;;;5022123;28;20138;-71
2021/04/13 03:56:06;;;;;;;12.18;7.53;;;4.30;90.90;;;;;;5009315;28;20050;-71
2021/04/13 03:58:39;;;;;;;17.58;8.38;;;4.00;90.90;;;;;;5031246;28;20054;-71
2021/04/13 04:01:07;;;;;;;14.02;7.82;;;4.00;90.80;;;;;;5015542;28;20149;-72
2021/04/13 04:03:36;;;;;;;14.68;8.75;;;4.00;90.90;;;;;;5022001;28;20461;-70
2021/04/13 04:06:04;;;;;;;19.30;8.67;;;3.80;91.30;;;;;;5006199;28;20046;-70
2021/04/13 04:08:34;;;;;;;14.60;8.20;;;3.60;91.80;;;;;;5023935;28;20046;-70
2021/04/13 04:11:01;;;;;;;13.18;7.78;;;3.90;91.60;;;;;;5024198;28;20095;-71
2021/04/13 04:13:45;;;;;;;19.02;8.45;;;4.00;90.80;;;;;;5013486;28;20085;-70
2021/04/13 04:16:19;;;;;;;15.10;7.78;;;4.10;90.50;;;;;;5012769;28;20535;-70
2021/04/13 04:18:51;;;;;;;13.85;8.15;;;4.00;90.20;;;;;;5014210;28;20104;-71
2021/04/13 04:21:41;;;;;;;15.45;8.13;;;4.20;90.30;;;;;;5006970;28;20046;-72
2021/04/13 04:24:17;;;;;;;12.13;7.28;;;4.10;90.00;;;;;;5025744;28;20469;-70
2021/04/13 04:26:55;;;;;;;13.65;8.13;;;4.20;90.10;;;;;;5029763;28;20453;-70
2021/04/13 04:29:33;;;;;;;15.52;7.75;;;4.20;90.30;;;;;;5013950;28;20760;-70
2021/04/13 04:32:20;;;;;;;15.80;8.77;;;4.00;90.90;;;;;;5003922;28;20069;-72
2021/04/13 04:34:46;;;;;;;15.15;9.05;;;3.80;91.00;;;;;;5012996;28;20430;-72
2021/04/13 04:37:32;;;;;;;14.95;8.27;;;3.90;91.30;;;;;;5010631;28;20074;-72
2021/04/13 04:40:14;;;;;;;14.13;7.88;;;4.10;91.00;;;;;;5010179;28;20092;-71
2021/04/13 04:42:56;;;;;;;13.30;8.02;;;3.90;90.70;;;;;;5028311;28;20121;-71
2021/04/13 04:45:32;;;;;;;13.25;8.23;;;4.10;90.10;;;;;;5013820;28;20050;-71
2021/04/13 04:47:59;;;;;;;15.63;8.85;;;4.10;89.20;;;;;;5029039;28;20125;-70
2021/04/13 04:50:26;;;;;;;15.13;8.82;;;4.00;89.80;;;;;;5013754;28;20050;-70
2021/04/13 04:52:52;;;;;;;12.68;8.02;;;4.00;89.90;;;;;;5013134;28;20085;-71
2021/04/13 04:55:19;;;;;;;16.60;8.48;;;3.90;89.80;;;;;;5013331;28;20762;-71
2021/04/13 04:57:45;;;;;;;18.80;9.45;;;3.90;89.70;;;;;;5014231;28;20458;-71
2021/04/13 05:00:12;;;;;;;15.93;8.63;;;3.90;90.50;;;;;;5010074;28;20052;-71
2021/04/13 05:02:38;;;;;;;16.55;8.23;;;4.00;91.00;;;;;;5009466;28;20049;-71
2021/04/13 05:05:06;;;;;;;17.83;8.75;;;3.70;90.50;;;;;;5011097;28;20096;-70
2021/04/13 05:07:32;;;;;;;16.63;9.02;;;3.60;90.90;;;;;;5012324;28;20105;-71
2021/04/13 05:09:59;;;;;;;19.30;9.23;;;3.50;90.90;;;;;;5012310;28;20053;-70
2021/04/13 05:12:25;;;;;;;18.80;9.52;;;3.60;90.40;;;;;;5011580;28;20564;-71
2021/04/13 05:14:51;;;;;;;21.48;10.65;;;3.70;90.50;;;;;;5014200;28;20112;-71
2021/04/13 05:17:17;;;;;;;17.63;9.73;;;3.50;90.60;;;;;;5011856;28;20465;-71
2021/04/13 05:19:44;;;;;;;15.77;9.10;;;3.70;90.40;;;;;;5011991;28;20419;-71
2021/04/13 05:22:10;;;;;;;18.08;9.80;;;3.70;89.70;;;;;;5014090;28;20050;-71
2021/04/13 05:24:38;;;;;;;16.77;9.30;;;3.90;89.50;;;;;;5011998;28;20053;-71
2021/04/13 05:27:05;;;;;;;18.50;10.40;;;3.80;89.00;;;;;;5011742;28;20452;-71
2021/04/13 05:29:32;;;;;;;18.02;10.02;;;3.80;88.50;;;;;;5027726;28;20134;-71
2021/04/13 05:31:58;;;;;;;15.57;9.15;;;3.80;88.90;;;;;;5004860;28;20572;-71
2021/04/13 05:34:24;;;;;;;16.77;10.35;;;3.90;88.20;;;;;;5014300;28;20045;-71
2021/04/13 05:36:53;;;;;;;16.10;9.75;;;3.90;88.10;;;;;;5016491;28;20099;-68
2021/04/13 05:39:20;;;;;;;17.83;10.05;;;4.10;88.00;;;;;;5012521;28;20456;-70
2021/04/13 05:41:48;;;;;;;19.92;10.18;;;3.90;86.90;;;;;;5002957;28;20081;-70
2021/04/13 05:44:15;;;;;;;20.45;9.93;;;3.90;86.60;;;;;;5012003;28;20058;-70
2021/04/13 05:46:42;;;;;;;19.52;10.13;;;3.90;87.30;;;;;;5025742;28;20471;-71
2021/04/13 05:49:10;;;;;;;18.08;9.40;;;4.20;86.00;;;;;;5011049;28;20457;-70
2021/04/13 05:51:37;;;;;;;16.75;9.65;;;5.40;81.40;;;;;;5003503;28;20046;-69
2021/04/13 05:54:03;;;;;;;19.33;10.60;;;5.90;78.10;;;;;;5013441;28;20425;-68
2021/04/13 05:56:39;;;;;;;17.90;9.82;;;5.60;76.10;;;;;;5009379;28;20443;-69
2021/04/13 05:59:09;;;;;;;17.40;9.73;;;5.80;76.80;;;;;;5007260;28;20080;-71
2021/04/13 06:01:36;;;;;;;20.08;10.40;;;5.80;74.90;;;;;;5012301;28;20096;-69
2021/04/13 06:04:04;;;;;;;20.58;10.57;;;5.70;74.90;;;;;;5012337;28;20420;-68
2021/04/13 06:06:31;;;;;;;21.20;10.80;;;5.80;74.40;;;;;;5010456;28;20042;-69
2021/04/13 06:08:58;;;;;;;19.85;10.75;;;5.70;74.00;;;;;;5026832;28;20512;-69
2021/04/13 06:11:28;;;;;;;21.38;11.55;;;5.60;74.50;;;;;;5012291;28;20118;-68
2021/04/13 06:13:59;;;;;;;23.42;10.90;;;5.70;74.50;;;;;;5009744;28;20088;-69
2021/04/13 06:16:33;;;;;;;21.02;11.05;;;6.50;72.00;;;;;;5018844;28;20088;-69
2021/04/13 06:19:01;;;;;;;20.50;10.90;;;6.80;70.40;;;;;;5010992;28;20481;-69
2021/04/13 06:21:28;;;;;;;17.67;10.65;;;6.10;71.00;;;;;;5010242;28;20045;-69
2021/04/13 06:23:55;;;;;;;20.88;10.60;;;5.80;71.90;;;;;;5012352;28;20077;-69
2021/04/13 06:26:23;;;;;;;24.83;11.35;;;6.20;71.90;;;;;;5004225;28;20556;-68
2021/04/13 06:28:49;;;;;;;19.98;10.98;;;6.70;69.90;;;;;;5017334;28;20065;-69
2021/04/13 06:31:15;;;;;;;19.30;11.20;;;6.60;69.00;;;;;;4991664;28;20129;-70
2021/04/13 06:33:42;;;;;;;24.60;11.90;;;6.30;70.80;;;;;;4993596;28;20111;-68
2021/04/13 06:36:09;;;;;;;21.83;12.25;;;5.80;72.50;;;;;;4991102;28;20141;-69
2021/04/13 06:38:39;;;;;;;20.30;11.43;;;6.20;72.80;;;;;;4989586;28;20143;-68
2021/04/13 06:41:40;;;;;;;21.95;11.50;;;5.80;71.50;;;;;;5006797;28;20046;-69
2021/04/13 06:44:26;;;;;;;20.55;11.15;;;6.00;71.70;;;;;;4989460;28;20039;-69
2021/04/13 06:47:25;;;;;;;20.40;10.63;;;6.10;70.90;;;;;;4995987;28;20503;-70
2021/04/13 06:50:04;;;;;;;22.75;11.77;;;6.10;71.10;;;;;;4991884;28;20177;-70
2021/04/13 06:53:18;;;;;;;27.98;12.15;;;6.70;69.50;;;;;;4992499;28;20078;-69
2021/04/13 06:56:18;;;;;;;19.60;11.10;;;7.00;68.30;;;;;;4990456;28;20142;-69
2021/04/13 06:59:06;;;;;;;18.67;11.05;;;7.70;64.80;;;;;;4993407;28;20452;-69
2021/04/13 07:02:00;;;;;;;24.55;10.85;;;7.60;64.60;;;;;;4990415;28;20076;-70
2021/04/13 07:05:08;;;;;;;19.30;10.90;;;8.70;63.30;;;;;;4993499;28;20048;-70
2021/04/13 07:07:56;;;;;;;18.48;10.93;;;8.00;61.60;;;;;;5006273;28;20089;-70
2021/04/13 07:10:33;;;;;;;19.90;11.23;;;8.50;61.30;;;;;;4994708;28;20050;-70
2021/04/13 07:13:18;;;;;;;20.33;11.40;;;8.80;60.00;;;;;;4990900;28;20470;-70
2021/04/13 07:16:05;;;;;;;24.08;12.55;;;8.60;60.20;;;;;;5008176;28;20058;-70
2021/04/13 07:19:09;;;;;;;18.83;11.38;;;8.50;59.50;;;;;;4990066;28;20065;-70
2021/04/13 07:21:47;;;;;;;18.83;11.48;;;7.70;62.10;;;;;;4990825;28;20475;-70
2021/04/13 07:24:16;;;;;;;18.05;10.82;;;8.10;62.30;;;;;;4991319;28;20085;-70
2021/04/13 07:26:51;;;;;;;18.10;11.07;;;8.50;60.10;;;;;;5005351;28;20546;-70
2021/04/13 07:29:43;;;;;;;20.33;11.10;;;9.60;59.30;;;;;;5008825;28;20556;-70
2021/04/13 07:32:16;;;;;;;16.88;10.70;;;10.20;55.30;;;;;;5004047;28;20111;-70
2021/04/13 07:34:44;;;;;;;20.60;12.50;;;9.70;57.40;;;;;;5007998;28;20042;-70
2021/04/13 07:37:23;;;;;;;21.38;11.73;;;10.20;55.40;;;;;;4993064;28;20485;-71
2021/04/13 07:39:56;;;;;;;25.65;13.23;;;9.20;56.10;;;;;;4991540;28;20115;-69
2021/04/13 07:42:31;;;;;;;25.60;13.73;;;8.70;58.00;;;;;;4986928;28;20046;-69
2021/04/13 07:45:16;;;;;;;21.45;12.35;;;8.60;58.40;;;;;;4989704;28;20442;-70
2021/04/13 07:48:10;;;;;;;23.83;13.25;;;8.70;58.60;;;;;;4987179;28;20058;-70
2021/04/13 07:51:03;;;;;;;25.83;13.45;;;8.20;59.20;;;;;;5004618;28;20474;-70
2021/04/13 07:53:58;;;;;;;20.50;12.10;;;9.60;57.40;;;;;;4990614;28;20058;-70
2021/04/13 07:56:47;;;;;;;19.17;11.55;;;10.00;54.40;;;;;;5009111;28;20053;-69
2021/04/13 07:59:27;;;;;;;20.40;12.48;;;9.60;56.20;;;;;;4991108;28;20941;-69
2021/04/13 08:01:53;;;;;;;23.83;12.52;;;9.90;54.80;;;;;;4990472;28;20047;-71
2021/04/13 08:04:23;;;;;;;28.33;12.38;;;10.00;53.90;;;;;;4991541;28;20133;-70
2021/04/13 08:07:04;;;;;;;22.88;12.00;;;10.00;54.10;;;;;;4989695;28;20089;-71
2021/04/13 08:09:38;;;;;;;19.77;12.13;;;10.00;53.30;;;;;;4990729;28;20108;-71
2021/04/13 08:12:35;;;;;;;19.58;11.30;;;10.20;52.80;;;;;;5005544;28;20473;-70
2021/04/13 08:15:13;;;;;;;20.48;12.20;;;10.20;51.60;;;;;;4991648;28;20042;-69
2021/04/13 08:18:22;;;;;;;18.70;11.13;;;10.60;52.70;;;;;;4989667;28;20050;-73
2021/04/13 08:20:49;;;;;;;17.85;10.93;;;10.50;50.90;;;;;;4991020;28;20046;-71
2021/04/13 08:23:24;;;;;;;20.58;11.10;;;10.80;50.30;;;;;;5007933;28;20078;-71
2021/04/13 08:25:56;;;;;;;23.35;11.52;;;10.60;50.20;;;;;;5012865;28;20192;-71
2021/04/13 08:28:34;;;;;;;19.55;11.40;;;10.00;51.00;;;;;;4984951;28;20077;-69
2021/04/13 08:34:38;;;;;;;19.75;9.80;;;10.90;49.20;;;;;;4992518;28;20462;-70
2021/04/13 08:37:22;;;;;;;22.35;10.88;;;10.50;49.50;;;;;;4990126;28;20149;-69
2021/04/13 08:40:07;;;;;;;22.95;10.80;;;10.20;49.70;;;;;;4990554;28;20064;-70
2021/04/13 08:42:44;;;;;;;15.65;9.75;;;9.70;51.40;;;;;;4988689;28;20065;-69
2021/04/13 08:45:30;;;;;;;24.40;12.25;;;10.20;50.80;;;;;;5005918;28;20100;-69
2021/04/13 08:48:44;;;;;;;15.68;9.00;;;10.30;49.00;;;;;;4990228;28;20497;-70
2021/04/13 08:51:14;;;;;;;14.95;8.88;;;11.50;47.00;;;;;;4979701;28;20064;-70
2021/04/13 08:53:50;;;;;;;17.40;9.32;;;11.50;46.50;;;;;;4988667;28;20136;-70
2021/04/13 08:56:26;;;;;;;17.55;8.98;;;11.80;45.60;;;;;;5006605;28;20055;-70
2021/04/13 08:59:05;;;;;;;16.67;8.70;;;11.00;46.00;;;;;;5007453;28;20054;-69
2021/04/13 09:01:41;;;;;;;14.75;8.75;;;10.70;47.70;;;;;;4994131;28;20122;-70
2021/04/13 09:04:13;;;;;;;16.73;8.90;;;11.60;45.70;;;;;;4999440;28;20049;-70
2021/04/13 09:06:56;;;;;;;;;;;12.60;44.20;;;;;;4996359;28;20469;-68
2021/04/13 09:09:28;;;;;;;16.27;8.35;;;12.80;42.90;;;;;;4995059;28;19930;-71
2021/04/13 09:12:16;;;;;;;15.70;8.57;;;11.80;44.10;;;;;;4993295;28;20136;-68
2021/04/13 09:15:01;;;;;;;14.32;8.93;;;11.20;44.50;;;;;;5007231;28;20046;-70
2021/04/13 09:17:54;;;;;;;14.35;7.72;;;12.30;44.90;;;;;;5007534;28;20569;-69
2021/04/13 09:20:40;;;;;;;14.88;7.35;;;14.30;39.60;;;;;;4992502;28;20108;-69
2021/04/13 09:23:06;;;;;;;14.52;7.80;;;13.40;39.20;;;;;;4993571;28;20096;-69
2021/04/13 09:25:42;;;;;;;15.80;7.97;;;14.60;38.20;;;;;;4992970;28;20065;-68
2021/04/13 09:28:11;;;;;;;14.77;8.70;;;14.70;38.50;;;;;;4996016;28;20056;-68
2021/04/13 09:31:08;;;;;;;11.52;7.13;;;13.00;38.90;;;;;;5002775;28;20073;-70
2021/04/13 09:33:43;;;;;;;18.90;7.60;;;14.60;38.20;;;;;;5004601;28;20046;-70
2021/04/13 09:36:10;;;;;;;12.07;7.20;;;14.30;36.80;;;;;;5005594;28;20061;-69
2021/04/13 09:39:02;;;;;;;13.18;8.15;;;14.20;36.90;;;;;;5001231;28;20054;-72
2021/04/13 09:41:48;;;;;;;12.80;7.18;;;13.20;37.60;;;;;;5000447;28;20156;-68
2021/04/13 09:44:52;;;;;;;12.82;7.07;;;13.00;37.10;;;;;;4999959;28;20124;-67
2021/04/13 09:47:40;;;;;;;14.27;7.07;;;14.60;35.60;;;;;;5004697;28;20529;-69
2021/04/13 09:50:19;;;;;;;13.35;7.90;;;12.20;36.30;;;;;;5000995;28;20050;-68
2021/04/13 09:53:11;;;;;;;12.50;7.55;;;12.50;39.00;;;;;;5003491;28;20100;-69
2021/04/13 09:55:50;;;;;;;13.05;7.60;;;13.90;37.40;;;;;;4999874;28;20081;-68
2021/04/13 09:59:04;;;;;;;13.35;7.88;;;12.20;37.80;;;;;;4999522;28;20082;-69
2021/04/13 10:01:55;;;;;;;9.20;6.03;;;11.80;37.80;;;;;;5005576;28;20052;-68
2021/04/13 10:04:54;;;;;;;9.15;5.43;;;11.70;37.80;;;;;;5017186;28;20045;-69
2021/04/13 10:07:35;;;;;;;10.35;6.20;;;12.50;36.20;;;;;;5004614;28;20128;-68
2021/04/13 10:10:05;;;;;;;8.40;5.10;;;12.40;35.70;;;;;;5003220;28;20058;-68
2021/04/13 10:13:01;;;;;;;9.55;5.88;;;13.30;35.50;;;;;;5003924;28;20050;-68
2021/04/13 10:16:03;;;;;;;15.50;7.97;;;13.90;33.50;;;;;;5004551;28;20081;-68
2021/04/13 10:19:06;;;;;;;8.93;5.10;;;13.90;33.40;;;;;;5006308;28;20054;-67
2021/04/13 10:22:00;;;;;;;7.55;5.68;;;13.80;33.10;;;;;;5006969;28;20472;-67
2021/04/13 10:24:45;;;;;;;8.77;5.82;;;13.00;33.80;;;;;;5006191;28;20081;-67
2021/04/13 10:27:20;;;;;;;10.00;6.18;;;13.30;34.90;;;;;;5007827;28;20132;-67
2021/04/13 10:30:09;;;;;;;9.85;5.70;;;13.40;35.30;;;;;;5006223;28;20413;-66
2021/04/13 10:32:55;;;;;;;9.93;5.80;;;15.80;33.30;;;;;;5007101;28;20147;-65
2021/04/13 10:35:56;;;;;;;10.88;5.75;;;16.20;31.30;;;;;;5001077;28;20068;-68
2021/04/13 10:39:03;;;;;;;8.73;5.00;;;15.20;33.10;;;;;;5005638;28;20561;-68
2021/04/13 10:41:58;;;;;;;7.95;3.70;;;13.10;33.70;;;;;;4980652;28;20074;-66
2021/04/13 10:44:43;;;;;;;7.85;4.13;;;12.40;33.00;;;;;;4981139;28;20050;-67
2021/04/13 10:47:34;;;;;;;8.50;3.63;;;11.70;34.30;;;;;;5001663;28;20486;-66
2021/04/13 10:50:09;;;;;;;7.15;3.38;;;11.80;34.70;;;;;;5007434;28;20365;-66
2021/04/13 10:52:41;;;;;;;8.27;3.50;;;12.00;34.40;;;;;;5006180;28;20050;-66
2021/04/13 10:55:33;;;;;;;6.03;3.05;;;12.70;33.30;;;;;;5004348;28;20058;-67
2021/04/13 10:58:24;;;;;;;7.25;3.25;;;12.70;31.20;;;;;;5005172;28;20085;-66
2021/04/13 11:01:12;;;;;;;8.10;3.08;;;12.70;31.80;;;;;;5003398;28;20557;-66
2021/04/13 11:03:59;;;;;;;9.20;3.00;;;12.70;32.40;;;;;;5003705;28;20395;-68
2021/04/13 11:06:51;;;;;;;4.28;2.90;;;12.60;32.60;;;;;;5004028;28;20627;-69
2021/04/13 11:09:23;;;;;;;5.68;3.10;;;13.70;32.40;;;;;;4995877;28;20070;-68
2021/04/13 11:11:52;;;;;;;4.30;2.70;;;14.00;32.00;;;;;;4996962;28;20097;-68
2021/04/13 11:14:37;;;;;;;7.88;3.78;;;12.90;31.90;;;;;;4999997;28;20429;-68
2021/04/13 11:17:37;;;;;;;8.52;3.50;;;13.30;33.90;;;;;;5004150;28;20053;-69
2021/04/13 11:20:24;;;;;;;6.90;3.47;;;12.50;34.00;;;;;;5016867;28;20120;-68
2021/04/13 11:23:28;;;;;;;5.82;3.20;;;11.90;34.80;;;;;;5001987;28;20050;-68
2021/04/13 11:26:32;;;;;;;5.35;2.58;;;13.50;35.50;;;;;;5014790;28;20526;-69
2021/04/13 11:29:26;;;;;;;7.00;3.30;;;14.00;32.70;;;;;;5001778;28;20056;-72
2021/04/13 11:32:33;;;;;;;8.48;3.40;;;12.80;34.70;;;;;;5000380;28;20100;-72
2021/04/13 11:35:20;;;;;;;5.75;3.53;;;11.90;35.90;;;;;;5002160;28;20100;-68
2021/04/13 11:37:58;;;;;;;7.57;3.47;;;11.40;36.50;;;;;;5011927;28;20057;-70
2021/04/13 11:40:39;;;;;;;8.15;3.65;;;11.90;37.00;;;;;;4994017;28;20145;-69
2021/04/13 11:43:11;;;;;;;4.53;2.60;;;13.90;35.40;;;;;;4999641;28;20064;-69
2021/04/13 11:45:56;;;;;;;5.82;2.50;;;14.10;32.20;;;;;;5003171;28;20073;-68
2021/04/13 11:48:54;;;;;;;3.28;2.30;;;12.80;35.00;;;;;;5000422;28;20058;-68
2021/04/13 11:51:38;;;;;;;5.45;2.60;;;14.10;33.40;;;;;;5014928;28;20160;-68
2021/04/13 11:54:39;;;;;;;5.53;2.50;;;14.70;31.50;;;;;;5004659;28;20145;-68
2021/04/13 11:57:15;;;;;;;;;;;13.00;34.30;;;;;;5002530;28;20897;-68
2021/04/13 11:59:42;;;;;;;7.75;2.15;;;12.70;34.30;;;;;;5002604;28;20380;-68
2021/04/13 12:02:43;;;;;;;4.10;2.10;;;14.00;34.00;;;;;;5003532;28;21177;-68
2021/04/13 12:05:40;;;;;;;3.95;2.15;;;14.80;31.80;;;;;;5001900;28;20057;-73
2021/04/13 12:08:22;;;;;;;3.47;2.00;;;15.30;32.40;;;;;;5002456;28;20088;-79
2021/04/13 12:10:55;;;;;;;3.95;2.10;;;16.40;31.20;;;;;;5003184;28;20180;-73
2021/04/13 12:13:42;;;;;;;5.28;2.22;;;15.40;30.50;;;;;;5016625;28;20140;-72
2021/04/13 12:16:15;;;;;;;6.75;2.20;;;14.20;36.60;;;;;;4999692;28;20280;-73
2021/04/13 12:18:44;;;;;;;3.80;2.03;;;13.30;32.00;;;;;;5014463;28;20096;-72
2021/04/13 12:21:26;;;;;;;2.63;1.63;;;13.00;33.30;;;;;;5000006;28;20046;-72
2021/04/13 12:23:57;;;;;;;6.90;1.90;;;12.40;33.00;;;;;;5014875;28;20165;-72
2021/04/13 12:26:35;;;;;;;4.50;1.60;;;12.30;34.40;;;;;;5002350;28;20062;-72
2021/04/13 12:29:29;;;;;;;3.30;1.75;;;13.40;37.20;;;;;;5002104;28;20061;-72
2021/04/13 12:32:11;;;;;;;5.15;2.38;;;13.40;35.80;;;;;;5001613;28;20049;-73
2021/04/13 12:34:43;;;;;;;6.03;1.85;;;12.80;36.50;;;;;;5005391;28;20112;-73
2021/04/13 12:37:34;;;;;;;4.78;2.70;;;14.20;33.90;;;;;;5005858;28;20444;-73
2021/04/13 12:40:23;;;;;;;4.78;2.40;;;13.40;33.70;;;;;;5025546;28;20223;-73
2021/04/13 12:42:50;;;;;;;3.28;1.88;;;13.20;34.30;;;;;;5006836;28;20065;-73
2021/04/13 12:45:22;;;;;;;4.35;2.33;;;12.90;34.60;;;;;;5002567;28;20136;-73
2021/04/13 12:48:09;;;;;;;3.65;2.30;;;13.70;35.30;;;;;;5006736;28;20085;-73
2021/04/13 12:50:43;;;;;;;4.10;2.10;;;13.60;33.50;;;;;;5003147;28;20065;-74
2021/04/13 12:53:16;;;;;;;4.75;2.28;;;15.40;32.60;;;;;;5017082;28;20108;-72
2021/04/13 12:55:46;;;;;;;3.10;2.38;;;17.70;30.50;;;;;;5017029;28;20144;-75
2021/04/13 12:58:29;;;;;;;3.88;2.35;;;18.10;29.80;;;;;;5003889;28;20112;-76
2021/04/13 13:00:56;;;;;;;5.38;2.30;;;19.00;29.10;;;;;;5003338;28;20049;-78
2021/04/13 13:03:33;;;;;;;6.38;2.58;;;19.10;28.30;;;;;;5002100;28;20584;-74
2021/04/13 13:06:11;;;;;;;4.90;2.40;;;19.90;28.30;;;;;;5015867;28;20058;-77
2021/04/13 13:08:37;;;;;;;6.47;3.30;;;21.20;27.10;;;;;;5020939;28;20068;-78
2021/04/13 13:11:17;;;;;;;7.22;2.88;;;17.30;29.80;;;;;;5000438;28;20202;-77
2021/04/13 13:13:55;;;;;;;7.93;3.08;;;15.60;32.00;;;;;;5017048;28;20191;-77
2021/04/13 13:16:43;;;;;;;6.72;2.70;;;14.40;34.00;;;;;;4997025;28;20054;-77
2021/04/13 13:19:44;;;;;;;5.72;2.80;;;13.70;35.40;;;;;;5000198;28;20053;-77
2021/04/13 13:22:22;;;;;;;5.82;2.70;;;13.50;35.10;;;;;;5015410;28;20082;-76
2021/04/13 13:24:51;;;;;;;3.72;2.55;;;12.80;34.40;;;;;;5000706;28;20766;-76
2021/04/13 13:27:29;;;;;;;6.13;2.97;;;12.90;34.90;;;;;;5015051;28;20050;-77
2021/04/13 13:29:57;;;;;;;5.80;2.30;;;12.70;35.90;;;;;;5018465;28;20061;-76
2021/04/13 13:32:26;;;;;;;4.72;2.67;;;12.60;34.90;;;;;;4999831;28;20054;-76
2021/04/13 13:35:01;;;;;;;2.30;2.03;;;12.50;34.80;;;;;;5014360;28;20574;-77
2021/04/13 13:37:39;;;;;;;4.07;2.13;;;14.00;33.70;;;;;;5000295;28;20054;-77
2021/04/13 13:40:31;;;;;;;3.08;1.95;;;14.50;33.90;;;;;;5016931;28;20054;-78
2021/04/13 13:42:58;;;;;;;3.47;1.70;;;13.80;32.30;;;;;;5008430;28;20078;-76
2021/04/13 13:45:44;;;;;;;2.72;1.80;;;13.60;32.80;;;;;;5001069;28;20131;-76
2021/04/13 13:48:26;;;;;;;5.18;2.08;;;13.20;32.80;;;;;;5015646;28;20054;-76